Etusivu
METAR-TAF:

METAR-TAF

Lentoasemat :

Ateena, Kreikka

Eleftherios Venizelosin kansainvälinen lentoasema

Leveyspiiri: 37-56N, Pituuspiiri: 023-56E, korkeus merenpinnasta: 94 m

Tämänhetkinen sää

Tämä raportti tehtiin 33 minuuttia sitten, kello 18.20 UTC
Tuuli 2 kn eri suunnista
Lämpötila 26°C
Kosteus 37%
Ilmanpaine 1011 hPa
Näkyvyys 10 km tai enemmän
Muutamia pilviä 3000 ft:n korkeudessa

METAR: LGAV 191820Z VRB02KT 9999 FEW030 26/10 Q1011 NOSIG

Aika: 21:53 (18:53 UTC)

Sääennuste

Tämä raportti tehtiin 1 tunti ja 53 minuuttia sitten, kello 17.00 UTC
Ennuste voimassa 19. päivästä klo 18 UTC - 20. päivään klo 18 UTC
Tuuli 5 kn eri suunnista
Näkyvyys 10 km tai enemmän
Muutamia pilviä 2000 ft:n korkeudessa
Tulossa
20. päivästä klo 06 UTC - 20. päivään klo 08 UTC
Tuuli 12 kn lounaasta

TAF: LGAV 191700Z 1918/2018 VRB05KT 9999 FEW020 BECMG 2006/2008 22012KT

Säähavainnot ja -ennusteet yli 4000 lentoasemalta (METAR- ja TAF-raportit).

Käytössä olevat sääasemat on merkitty karttaan keltaisilla ja punaisilla pisteillä.

Aseta hiiri pisteen päälle nähdäksesi sääaseman nimen.

Klikkaa sitten nähdäksesi säähavainnot ja -ennusteet.

Kartan vaihtaminen: klikkaa mustalla rastilla varustettuja vihreitä pisteitä, niin voit zoomata sisään; viivalla varustettua vihreää pistettä, niin voit zoomata ulos tai vihreitä nuolia, niin pääset viereisille kartoille.


METAR-TAF: